createdAt,value
2022-07-30T00:00:05.647Z,2.87
2022-07-30T00:02:58.017Z,2.63
2022-07-30T00:05:48.865Z,2.40
2022-07-30T00:08:39.725Z,2.37
2022-07-30T00:11:30.659Z,2.80
2022-07-30T00:14:21.703Z,2.30
2022-07-30T00:17:13.493Z,2.57
2022-07-30T00:20:09.077Z,3.10
2022-07-30T00:23:03.575Z,2.90
2022-07-30T00:25:54.577Z,3.37
2022-07-30T00:28:45.383Z,3.37
2022-07-30T00:31:36.206Z,3.30
2022-07-30T00:34:27.108Z,2.90
2022-07-30T00:37:19.320Z,2.90
2022-07-30T00:40:10.483Z,2.97
2022-07-30T00:43:04.294Z,3.30
2022-07-30T00:45:55.197Z,2.70
2022-07-30T00:48:46.372Z,3.00
2022-07-30T00:51:37.710Z,2.77
2022-07-30T00:54:29.852Z,2.80
2022-07-30T00:57:20.596Z,2.90
2022-07-30T01:00:12.789Z,2.70
2022-07-30T01:03:04.710Z,2.77
2022-07-30T01:05:55.858Z,2.73
2022-07-30T01:08:46.803Z,2.83
2022-07-30T01:11:39.885Z,2.97
2022-07-30T01:14:31.361Z,3.27
2022-07-30T01:17:22.438Z,2.70
2022-07-30T01:20:16.610Z,2.73
2022-07-30T01:23:10.780Z,2.50
2022-07-30T01:26:03.531Z,2.50
2022-07-30T01:28:55.356Z,3.53
2022-07-30T01:31:47.045Z,3.43
2022-07-30T01:34:38.523Z,3.20
2022-07-30T01:37:30.126Z,2.80
2022-07-30T01:40:21.819Z,2.80
2022-07-30T01:43:14.732Z,2.73
2022-07-30T01:46:06.696Z,3.10
2022-07-30T01:48:58.399Z,2.90
2022-07-30T01:51:50.115Z,3.00
2022-07-30T01:54:41.254Z,2.43
2022-07-30T01:57:33.347Z,2.63
2022-07-30T02:00:27.397Z,2.73
2022-07-30T02:03:18.646Z,2.50
2022-07-30T02:06:12.168Z,3.17
2022-07-30T02:09:10.914Z,2.90
2022-07-30T02:12:20.843Z,3.03
2022-07-30T02:15:15.667Z,2.90
2022-07-30T02:18:10.402Z,3.07
2022-07-30T02:21:07.339Z,3.03
2022-07-30T02:23:59.298Z,2.80
2022-07-30T02:26:52.040Z,3.57
2022-07-30T02:29:43.774Z,4.23
2022-07-30T02:32:36.788Z,2.83
2022-07-30T02:35:30.207Z,3.00
2022-07-30T02:38:21.846Z,3.20
2022-07-30T02:41:13.268Z,2.70
2022-07-30T02:44:05.408Z,3.30
2022-07-30T02:46:57.161Z,2.90
2022-07-30T02:49:49.492Z,3.40
2022-07-30T02:52:42.422Z,2.53
2022-07-30T02:55:35.468Z,2.30
2022-07-30T02:58:26.931Z,2.40
2022-07-30T03:01:19.025Z,2.27
2022-07-30T03:04:11.187Z,2.20
2022-07-30T03:07:07.928Z,2.67
2022-07-30T03:10:00.770Z,3.03
2022-07-30T03:12:52.342Z,2.23
2022-07-30T03:15:48.875Z,2.80
2022-07-30T03:18:40.540Z,2.33
2022-07-30T03:21:32.968Z,2.23
2022-07-30T03:24:24.746Z,2.43
2022-07-30T03:27:17.184Z,2.30
2022-07-30T03:30:09.282Z,2.47
2022-07-30T03:33:00.163Z,2.50
2022-07-30T03:35:52.042Z,2.43
2022-07-30T03:38:43.237Z,2.10
2022-07-30T03:41:34.598Z,2.40
2022-07-30T03:44:27.335Z,2.30
2022-07-30T03:47:18.477Z,2.37
2022-07-30T03:50:09.939Z,2.17
2022-07-30T03:53:01.235Z,2.00
2022-07-30T03:55:52.746Z,2.63
2022-07-30T03:58:43.702Z,2.50
2022-07-30T04:01:36.114Z,2.33
2022-07-30T04:04:27.645Z,2.50
2022-07-30T04:07:18.900Z,2.30
2022-07-30T04:10:10.116Z,2.30
2022-07-30T04:13:03.556Z,2.20
2022-07-30T04:16:38.115Z,2.10
2022-07-30T04:19:16.216Z,2.20
2022-07-30T04:22:08.782Z,2.33
2022-07-30T04:25:01.062Z,2.27
2022-07-30T04:28:01.919Z,1.90
2022-07-30T04:30:55.342Z,2.20
2022-07-30T04:33:46.480Z,2.20
2022-07-30T04:36:40.201Z,2.10
2022-07-30T04:39:31.069Z,1.90
2022-07-30T04:42:22.580Z,2.00
2022-07-30T04:45:14.586Z,2.20
2022-07-30T04:48:05.557Z,2.00
2022-07-30T04:50:58.401Z,2.13
2022-07-30T04:53:51.731Z,1.93
2022-07-30T04:56:50.216Z,2.10
2022-07-30T04:59:44.922Z,2.10
2022-07-30T05:02:38.342Z,1.60
2022-07-30T05:05:32.421Z,2.10
2022-07-30T05:08:24.095Z,2.47
2022-07-30T05:11:18.609Z,2.30
2022-07-30T05:14:09.595Z,2.23
2022-07-30T05:17:00.583Z,2.40
2022-07-30T05:19:51.647Z,2.13
2022-07-30T05:22:50.842Z,2.20
2022-07-30T05:25:42.183Z,2.23
2022-07-30T05:28:34.252Z,2.83
2022-07-30T05:31:25.295Z,2.10
2022-07-30T05:34:16.537Z,2.23
2022-07-30T05:37:09.808Z,2.10
2022-07-30T05:40:03.174Z,2.40
2022-07-30T05:42:54.262Z,2.73
2022-07-30T05:45:46.323Z,2.60
2022-07-30T05:48:37.038Z,2.67
2022-07-30T05:51:27.601Z,2.30
2022-07-30T05:54:18.352Z,2.23
2022-07-30T05:57:09.074Z,2.30
2022-07-30T05:59:59.825Z,2.30
2022-07-30T06:02:51.791Z,2.07
2022-07-30T06:05:42.605Z,2.00
2022-07-30T06:08:34.386Z,2.47
2022-07-30T06:11:25.416Z,2.00
2022-07-30T06:14:16.317Z,2.40
2022-07-30T06:17:07.099Z,2.40
2022-07-30T06:20:01.675Z,2.63
2022-07-30T06:22:52.240Z,2.73
2022-07-30T06:25:42.994Z,2.00
2022-07-30T06:28:38.449Z,2.20
2022-07-30T06:31:30.228Z,2.60
2022-07-30T06:34:21.451Z,2.40
2022-07-30T06:37:13.387Z,2.30
2022-07-30T06:40:04.517Z,2.30
2022-07-30T06:42:55.595Z,2.33
2022-07-30T06:45:46.556Z,2.07
2022-07-30T06:48:37.734Z,1.90
2022-07-30T06:51:28.941Z,2.23
2022-07-30T06:54:20.997Z,2.20
2022-07-30T06:57:11.791Z,2.33
2022-07-30T07:00:03.131Z,2.10
2022-07-30T07:02:54.037Z,1.80
2022-07-30T07:05:45.085Z,1.90
2022-07-30T07:08:36.588Z,2.10
2022-07-30T07:11:30.608Z,1.93
2022-07-30T07:14:21.625Z,2.10
2022-07-30T07:17:12.942Z,2.33
2022-07-30T07:20:04.371Z,2.27
2022-07-30T07:22:55.229Z,2.20
2022-07-30T07:25:48.485Z,1.90
2022-07-30T07:28:41.049Z,1.77
2022-07-30T07:32:02.548Z,2.10
2022-07-30T07:34:42.749Z,1.80
2022-07-30T07:37:33.660Z,2.30
2022-07-30T07:40:24.649Z,2.20
2022-07-30T07:43:15.953Z,2.07
2022-07-30T07:46:07.940Z,1.83
2022-07-30T07:48:59.233Z,2.33
2022-07-30T07:51:51.011Z,1.97
2022-07-30T07:54:41.785Z,2.30
2022-07-30T07:57:38.763Z,2.20
2022-07-30T08:00:30.353Z,2.00
2022-07-30T08:03:22.814Z,2.00
2022-07-30T08:06:15.209Z,2.10
2022-07-30T08:09:06.233Z,2.00
2022-07-30T08:11:57.038Z,2.20
2022-07-30T08:14:51.328Z,2.30
2022-07-30T08:17:42.615Z,2.10
2022-07-30T08:20:35.501Z,2.03
2022-07-30T08:23:26.269Z,2.10
2022-07-30T08:26:17.463Z,2.07
2022-07-30T08:29:08.246Z,1.80
2022-07-30T08:31:59.319Z,2.33
2022-07-30T08:34:50.721Z,2.00
2022-07-30T08:37:42.896Z,1.90
2022-07-30T08:40:34.518Z,2.10
2022-07-30T08:43:27.042Z,1.93
2022-07-30T08:46:19.161Z,2.07
2022-07-30T08:49:11.367Z,2.23
2022-07-30T08:52:03.283Z,1.90
2022-07-30T08:54:56.158Z,2.23
2022-07-30T08:57:47.602Z,2.43
2022-07-30T09:00:38.841Z,2.70
2022-07-30T09:03:29.767Z,2.33
2022-07-30T09:06:20.946Z,2.40
2022-07-30T09:09:11.630Z,2.57
2022-07-30T09:12:03.672Z,2.30
2022-07-30T09:15:01.928Z,2.30
2022-07-30T09:17:54.778Z,2.13
2022-07-30T09:20:45.600Z,2.20
2022-07-30T09:23:36.438Z,2.00
2022-07-30T09:26:27.399Z,2.00
2022-07-30T09:29:20.412Z,2.13
2022-07-30T09:32:11.373Z,2.00
2022-07-30T09:35:12.986Z,2.80
2022-07-30T09:38:06.670Z,2.00
2022-07-30T09:41:00.168Z,2.30
2022-07-30T09:43:55.779Z,2.07
2022-07-30T09:46:51.507Z,2.13
2022-07-30T09:49:42.996Z,2.23
2022-07-30T09:52:44.219Z,3.47
2022-07-30T09:55:41.490Z,2.37
2022-07-30T09:58:40.433Z,2.10
2022-07-30T10:01:54.779Z,2.03
2022-07-30T10:04:51.963Z,2.33
2022-07-30T10:07:51.254Z,1.80
2022-07-30T10:10:46.918Z,2.20
2022-07-30T10:13:45.172Z,2.10
2022-07-30T10:16:36.786Z,2.03
2022-07-30T10:19:39.933Z,2.10
2022-07-30T10:22:33.177Z,2.07
2022-07-30T10:25:27.624Z,2.00
2022-07-30T10:28:19.278Z,2.20
2022-07-30T10:31:46.784Z,2.17
2022-07-30T10:34:23.702Z,2.10
2022-07-30T10:37:18.827Z,2.10
2022-07-30T10:40:13.943Z,2.70
2022-07-30T10:43:23.272Z,2.47
2022-07-30T10:46:27.781Z,2.40
2022-07-30T10:49:19.553Z,2.17
2022-07-30T10:52:10.688Z,2.03
2022-07-30T10:55:02.789Z,1.87
2022-07-30T10:57:59.956Z,1.90
2022-07-30T11:01:00.226Z,1.80
2022-07-30T11:04:06.387Z,2.47
2022-07-30T11:07:27.845Z,1.73
2022-07-30T11:10:37.312Z,1.87
2022-07-30T11:13:47.264Z,2.03
2022-07-30T11:16:59.423Z,1.60
2022-07-30T11:20:11.944Z,1.90
2022-07-30T11:23:10.244Z,1.90
2022-07-30T11:26:06.301Z,1.95
2022-07-30T11:28:58.081Z,1.60
2022-07-30T11:31:58.416Z,1.70
2022-07-30T11:35:15.999Z,2.00
2022-07-30T11:38:08.037Z,1.80
2022-07-30T11:41:12.373Z,1.40
2022-07-30T11:44:36.539Z,2.20
2022-07-30T11:47:28.691Z,1.92
2022-07-30T11:50:20.032Z,1.80
2022-07-30T11:53:16.182Z,2.33
2022-07-30T11:56:09.428Z,2.38
2022-07-30T11:59:07.322Z,2.00
2022-07-30T12:02:01.606Z,1.50
2022-07-30T12:04:52.829Z,1.85
2022-07-30T12:07:43.631Z,1.90
2022-07-30T12:10:36.047Z,1.80
2022-07-30T12:13:45.219Z,1.80
2022-07-30T12:16:38.164Z,1.70
2022-07-30T12:19:29.234Z,2.10
2022-07-30T12:22:38.250Z,1.90
2022-07-30T12:25:28.980Z,1.60
2022-07-30T12:28:23.369Z,1.80
2022-07-30T12:31:15.642Z,1.90
2022-07-30T12:34:19.431Z,1.80
2022-07-30T12:37:10.862Z,1.90
2022-07-30T12:40:12.996Z,2.00
2022-07-30T12:43:05.791Z,1.60
2022-07-30T12:46:05.182Z,1.65
2022-07-30T12:48:57.088Z,2.35
2022-07-30T12:51:59.691Z,2.10
2022-07-30T12:55:01.775Z,1.67
2022-07-30T12:57:53.684Z,1.73
2022-07-30T13:00:51.868Z,1.90
2022-07-30T13:03:43.111Z,1.77
2022-07-30T13:06:33.907Z,1.80
2022-07-30T13:09:25.928Z,2.47
2022-07-30T13:12:16.681Z,1.73
2022-07-30T13:15:08.293Z,2.13
2022-07-30T13:17:59.128Z,2.15
2022-07-30T13:20:50.253Z,1.90
2022-07-30T13:23:42.316Z,1.60
2022-07-30T13:26:35.544Z,1.63
2022-07-30T13:29:26.697Z,1.50
2022-07-30T13:32:17.506Z,2.00
2022-07-30T13:35:09.060Z,2.03
2022-07-30T13:38:01.577Z,1.90
2022-07-30T13:40:52.567Z,2.05
2022-07-30T13:43:44.705Z,1.70
2022-07-30T13:46:35.589Z,1.63
2022-07-30T13:49:26.412Z,1.95
2022-07-30T13:52:18.177Z,1.90
2022-07-30T13:55:09.123Z,2.40
2022-07-30T13:57:59.972Z,1.63
2022-07-30T14:00:52.318Z,1.63
2022-07-30T14:03:48.448Z,1.60
2022-07-30T14:06:41.477Z,1.80
2022-07-30T14:09:33.081Z,1.60
2022-07-30T14:12:34.465Z,1.77
2022-07-30T14:15:26.108Z,1.80
2022-07-30T14:18:18.212Z,2.00
2022-07-30T14:21:09.092Z,1.70
2022-07-30T14:23:59.866Z,1.83
2022-07-30T14:26:58.641Z,2.00
2022-07-30T14:29:50.393Z,1.90
2022-07-30T14:32:41.658Z,2.10
2022-07-30T14:35:34.105Z,2.03
2022-07-30T14:38:25.416Z,1.70
2022-07-30T14:41:17.139Z,2.40
2022-07-30T14:44:11.987Z,2.90
2022-07-30T14:47:03.320Z,2.05
2022-07-30T14:49:54.795Z,2.30
2022-07-30T14:52:47.635Z,1.80
2022-07-30T14:55:38.752Z,1.88
2022-07-30T14:58:29.569Z,1.88
2022-07-30T15:01:20.727Z,1.70
2022-07-30T15:04:12.472Z,1.55
2022-07-30T15:07:03.415Z,1.98
2022-07-30T15:09:57.175Z,1.88
2022-07-30T15:12:48.300Z,1.95
2022-07-30T15:15:39.688Z,1.80
2022-07-30T15:18:30.521Z,1.50
2022-07-30T15:21:21.660Z,1.50
2022-07-30T15:24:12.458Z,1.50
2022-07-30T15:27:05.944Z,1.58
2022-07-30T15:29:57.210Z,1.70
2022-07-30T15:32:48.141Z,1.80
2022-07-30T15:35:39.169Z,2.15
2022-07-30T15:38:30.236Z,1.65
2022-07-30T15:41:21.143Z,1.77
2022-07-30T15:44:13.918Z,2.22
2022-07-30T15:47:04.639Z,2.13
2022-07-30T15:49:55.829Z,2.10
2022-07-30T15:52:46.946Z,2.25
2022-07-30T15:55:47.251Z,2.10
2022-07-30T15:58:43.266Z,1.70
2022-07-30T16:01:35.894Z,2.10
2022-07-30T16:04:31.607Z,2.00
2022-07-30T16:07:23.151Z,1.73
2022-07-30T16:10:13.867Z,1.90
2022-07-30T16:13:04.576Z,1.52
2022-07-30T16:15:55.249Z,2.00
2022-07-30T16:18:47.312Z,1.90
2022-07-30T16:21:39.652Z,1.60
2022-07-30T16:24:30.334Z,2.03
2022-07-30T16:27:21.068Z,1.97
2022-07-30T16:30:12.683Z,1.90
2022-07-30T16:33:03.801Z,1.85
2022-07-30T16:35:56.034Z,2.10
2022-07-30T16:38:47.355Z,1.83
2022-07-30T16:41:38.249Z,1.90
2022-07-30T16:44:31.948Z,2.50
2022-07-30T16:47:22.833Z,2.13
2022-07-30T16:50:13.508Z,1.93
2022-07-30T16:53:08.493Z,1.80
2022-07-30T16:56:01.625Z,1.70
2022-07-30T16:58:52.400Z,2.05
2022-07-30T17:01:43.079Z,2.20
2022-07-30T17:04:35.378Z,1.70
2022-07-30T17:07:26.130Z,2.03
2022-07-30T17:10:25.520Z,1.97
2022-07-30T17:13:16.850Z,2.07
2022-07-30T17:16:08.106Z,1.97
2022-07-30T17:18:58.888Z,2.80
2022-07-30T17:21:49.593Z,2.50
2022-07-30T17:24:40.354Z,2.47
2022-07-30T17:27:35.035Z,2.30
2022-07-30T17:30:27.001Z,2.23
2022-07-30T17:33:17.927Z,2.20
2022-07-30T17:36:09.225Z,2.97
2022-07-30T17:38:59.900Z,2.33
2022-07-30T17:42:06.712Z,2.50
2022-07-30T17:45:01.178Z,1.97
2022-07-30T17:47:51.795Z,2.03
2022-07-30T17:50:42.639Z,2.33
2022-07-30T17:53:35.008Z,2.30
2022-07-30T17:56:27.497Z,2.13
2022-07-30T17:59:18.727Z,2.20
2022-07-30T18:02:10.884Z,1.83
2022-07-30T18:05:02.252Z,2.40
2022-07-30T18:07:53.037Z,1.90
2022-07-30T18:10:44.279Z,2.50
2022-07-30T18:13:36.334Z,2.37
2022-07-30T18:16:29.650Z,2.40
2022-07-30T18:19:22.650Z,2.00
2022-07-30T18:22:27.544Z,2.13
2022-07-30T18:25:23.159Z,2.20
2022-07-30T18:28:14.344Z,2.70
2022-07-30T18:31:05.221Z,2.40
2022-07-30T18:33:55.873Z,2.20
2022-07-30T18:36:51.031Z,2.60
2022-07-30T18:39:42.016Z,2.23
2022-07-30T18:42:33.849Z,2.60
2022-07-30T18:45:25.529Z,2.73
2022-07-30T18:48:16.223Z,2.40
2022-07-30T18:51:09.687Z,3.00
2022-07-30T18:54:06.119Z,2.87
2022-07-30T18:56:57.527Z,2.83
2022-07-30T18:59:48.609Z,3.00
2022-07-30T19:02:39.773Z,2.67
2022-07-30T19:05:30.958Z,3.00
2022-07-30T19:08:21.948Z,3.23
2022-07-30T19:11:15.006Z,3.20
2022-07-30T19:14:05.834Z,4.07
2022-07-30T19:16:59.385Z,3.37
2022-07-30T19:19:51.550Z,3.40
2022-07-30T19:22:42.459Z,3.50
2022-07-30T19:25:34.161Z,3.17
2022-07-30T19:28:28.138Z,3.23
2022-07-30T19:31:19.631Z,3.30
2022-07-30T19:34:10.807Z,3.17
2022-07-30T19:37:01.687Z,3.17
2022-07-30T19:40:05.355Z,3.33
2022-07-30T19:43:01.916Z,3.83
2022-07-30T19:45:58.745Z,3.20
2022-07-30T19:48:50.608Z,3.03
2022-07-30T19:52:10.080Z,3.30
2022-07-30T19:54:52.622Z,3.57
2022-07-30T19:57:51.334Z,3.27
2022-07-30T20:00:49.522Z,3.40
2022-07-30T20:03:42.089Z,3.37
2022-07-30T20:06:37.636Z,3.10
2022-07-30T20:09:29.298Z,3.13
2022-07-30T20:12:21.493Z,5.00
2022-07-30T20:15:15.330Z,4.30
2022-07-30T20:18:08.211Z,5.10
2022-07-30T20:21:00.748Z,4.87
2022-07-30T20:23:52.525Z,5.57
2022-07-30T20:26:43.826Z,6.27
2022-07-30T20:29:34.745Z,5.30
2022-07-30T20:32:25.752Z,4.87
2022-07-30T20:35:17.202Z,5.07
2022-07-30T20:38:14.813Z,4.00
2022-07-30T20:41:09.971Z,3.30
2022-07-30T20:44:02.532Z,3.70
2022-07-30T20:46:54.277Z,2.90
2022-07-30T20:49:51.535Z,3.40
2022-07-30T20:52:46.436Z,3.30
2022-07-30T20:55:39.073Z,3.20
2022-07-30T20:58:32.895Z,3.90
2022-07-30T21:01:24.756Z,4.70
2022-07-30T21:04:23.993Z,5.80
2022-07-30T21:07:20.599Z,6.00
2022-07-30T21:10:12.171Z,5.00
2022-07-30T21:13:07.649Z,4.87
2022-07-30T21:19:11.207Z,4.40
2022-07-30T21:22:02.786Z,4.40
2022-07-30T21:24:54.231Z,4.50
2022-07-30T21:27:45.129Z,4.33
2022-07-30T21:30:40.639Z,5.13
2022-07-30T21:33:31.883Z,4.60
2022-07-30T21:36:24.910Z,5.13
2022-07-30T21:39:16.811Z,5.47
2022-07-30T21:42:07.584Z,4.33
2022-07-30T21:44:58.921Z,5.10
2022-07-30T21:47:51.611Z,4.80
2022-07-30T21:50:42.926Z,5.03
2022-07-30T21:53:46.251Z,5.37
2022-07-30T21:56:41.517Z,5.60
2022-07-30T21:59:33.071Z,5.87
2022-07-30T22:02:24.847Z,6.13
2022-07-30T22:05:17.830Z,5.53
2022-07-30T22:08:10.348Z,6.43
2022-07-30T22:11:01.723Z,6.37
2022-07-30T22:13:53.978Z,5.97
2022-07-30T22:16:46.129Z,5.33
2022-07-30T22:19:37.511Z,5.80
2022-07-30T22:22:34.247Z,6.47
2022-07-30T22:25:44.136Z,6.20
2022-07-30T22:28:35.954Z,6.20
2022-07-30T22:31:30.956Z,5.83
2022-07-30T22:34:30.966Z,6.17
2022-07-30T22:37:21.954Z,5.57
2022-07-30T22:40:14.170Z,6.33
2022-07-30T22:43:07.608Z,6.60
2022-07-30T22:45:58.914Z,6.20
2022-07-30T22:48:51.214Z,5.37
2022-07-30T22:51:58.595Z,5.63
2022-07-30T22:54:53.119Z,6.53
2022-07-30T22:57:45.519Z,7.07
2022-07-30T23:00:39.015Z,6.03
2022-07-30T23:03:29.654Z,5.93
2022-07-30T23:06:20.595Z,5.50
2022-07-30T23:09:11.625Z,5.00
2022-07-30T23:12:03.660Z,5.53
2022-07-30T23:12:27.039Z,5.10
2022-07-30T23:14:55.872Z,5.93
2022-07-30T23:17:49.146Z,5.27
2022-07-30T23:20:39.870Z,5.37
2022-07-30T23:23:34.017Z,5.20
2022-07-30T23:26:25.487Z,5.53
2022-07-30T23:29:16.204Z,5.10
2022-07-30T23:32:08.470Z,5.17
2022-07-30T23:34:59.431Z,5.10
2022-07-30T23:37:50.637Z,5.03
2022-07-30T23:40:41.626Z,5.80
2022-07-30T23:43:32.525Z,5.20
2022-07-30T23:46:23.260Z,5.37
2022-07-30T23:49:15.382Z,4.73
2022-07-30T23:52:06.573Z,4.93
2022-07-30T23:54:57.374Z,5.53
2022-07-30T23:57:48.096Z,5.13
